createdAt,value
2022-08-12T00:02:02.144Z,1.92
2022-08-12T00:05:57.166Z,2.10
2022-08-12T00:08:07.776Z,2.20
2022-08-12T00:10:10.157Z,2.00
2022-08-12T00:12:12.475Z,1.95
2022-08-12T00:14:15.112Z,1.88
2022-08-12T00:16:19.616Z,2.00
2022-08-12T00:18:22.037Z,1.95
2022-08-12T00:20:24.755Z,2.00
2022-08-12T00:22:33.822Z,1.98
2022-08-12T00:24:38.446Z,2.10
2022-08-12T00:26:44.066Z,2.28
2022-08-12T00:28:46.576Z,2.03
2022-08-12T00:30:49.297Z,2.00
2022-08-12T00:32:54.704Z,2.08
2022-08-12T00:35:00.417Z,2.00
2022-08-12T00:37:13.329Z,2.28
2022-08-12T00:39:17.024Z,2.00
2022-08-12T00:41:20.758Z,2.40
2022-08-12T00:43:26.145Z,2.20
2022-08-12T00:45:28.556Z,2.10
2022-08-12T00:47:33.185Z,1.98
2022-08-12T00:49:36.196Z,2.03
2022-08-12T00:51:40.677Z,2.00
2022-08-12T00:53:43.626Z,1.90
2022-08-12T00:55:46.176Z,2.10
2022-08-12T00:57:50.997Z,1.88
2022-08-12T01:00:00.128Z,2.10
2022-08-12T01:02:11.664Z,2.22
2022-08-12T01:04:20.552Z,2.22
2022-08-12T01:06:24.444Z,2.10
2022-08-12T01:08:26.732Z,2.13
2022-08-12T01:10:34.211Z,2.08
2022-08-12T01:12:39.443Z,2.15
2022-08-12T01:14:43.899Z,2.45
2022-08-12T01:16:47.616Z,2.20
2022-08-12T01:18:55.778Z,2.35
2022-08-12T01:21:25.898Z,2.20
2022-08-12T01:23:44.838Z,2.17
2022-08-12T01:25:55.580Z,2.10
2022-08-12T01:27:58.991Z,2.17
2022-08-12T01:30:09.663Z,2.22
2022-08-12T01:32:15.221Z,2.55
2022-08-12T01:34:35.797Z,2.50
2022-08-12T01:36:47.125Z,2.40
2022-08-12T01:38:51.759Z,2.03
2022-08-12T01:40:55.737Z,2.15
2022-08-12T01:43:05.856Z,1.95
2022-08-12T01:45:10.635Z,2.03
2022-08-12T01:47:41.785Z,2.10
2022-08-12T01:49:53.655Z,2.42
2022-08-12T01:52:21.551Z,2.20
2022-08-12T01:54:27.807Z,2.40
2022-08-12T01:56:40.656Z,2.08
2022-08-12T01:58:44.216Z,2.10
2022-08-12T02:00:57.744Z,2.33
2022-08-12T02:03:23.016Z,1.95
2022-08-12T02:05:50.155Z,2.22
2022-08-12T02:08:14.687Z,2.00
2022-08-12T02:10:50.004Z,2.20
2022-08-12T02:13:12.376Z,2.30
2022-08-12T02:15:27.654Z,1.80
2022-08-12T02:18:03.288Z,2.10
2022-08-12T02:20:35.139Z,2.15
2022-08-12T02:22:52.456Z,2.40
2022-08-12T02:25:18.155Z,1.90
2022-08-12T02:27:22.328Z,2.00
2022-08-12T02:29:25.615Z,2.20
2022-08-12T02:31:29.655Z,1.90
2022-08-12T02:33:36.375Z,1.70
2022-08-12T02:35:38.945Z,1.80
2022-08-12T02:37:43.895Z,1.60
2022-08-12T02:39:49.348Z,1.75
2022-08-12T02:41:54.974Z,1.80
2022-08-12T02:44:00.748Z,1.80
2022-08-12T02:46:15.204Z,2.10
2022-08-12T02:48:28.475Z,1.92
2022-08-12T02:50:34.931Z,2.15
2022-08-12T02:52:37.837Z,2.00
2022-08-12T02:54:46.015Z,1.90
2022-08-12T02:56:51.118Z,2.00
2022-08-12T02:58:54.755Z,2.22
2022-08-12T03:00:59.556Z,2.30
2022-08-12T03:03:07.175Z,2.10
2022-08-12T03:05:13.582Z,1.90
2022-08-12T03:07:56.315Z,2.00
2022-08-12T03:10:15.809Z,2.00
2022-08-12T03:12:21.438Z,2.05
2022-08-12T03:14:28.670Z,2.17
2022-08-12T03:16:33.073Z,1.88
2022-08-12T03:18:37.115Z,2.08
2022-08-12T03:20:39.447Z,1.88
2022-08-12T03:22:44.456Z,2.00
2022-08-12T03:24:51.316Z,2.00
2022-08-12T03:27:00.515Z,2.10
2022-08-12T03:29:06.356Z,2.20
2022-08-12T03:31:10.677Z,2.03
2022-08-12T03:33:14.657Z,1.90
2022-08-12T03:35:39.998Z,2.10
2022-08-12T03:37:45.894Z,2.05
2022-08-12T03:39:48.623Z,1.90
2022-08-12T03:42:09.981Z,2.13
2022-08-12T03:44:25.720Z,1.80
2022-08-12T03:46:34.705Z,1.80
2022-08-12T03:48:37.015Z,1.65
2022-08-12T03:50:40.294Z,1.80
2022-08-12T03:52:42.854Z,2.00
2022-08-12T03:54:45.255Z,1.90
2022-08-12T03:56:48.018Z,1.58
2022-08-12T03:58:50.466Z,2.00
2022-08-12T04:00:52.972Z,2.10
2022-08-12T04:02:56.976Z,2.20
2022-08-12T04:04:59.395Z,1.90
2022-08-12T04:07:08.052Z,2.47
2022-08-12T04:09:16.140Z,1.90
2022-08-12T04:11:19.675Z,1.98
2022-08-12T04:13:22.654Z,1.80
2022-08-12T04:15:26.935Z,2.40
2022-08-12T04:17:29.976Z,1.83
2022-08-12T04:19:34.664Z,2.00
2022-08-12T04:21:42.096Z,3.13
2022-08-12T04:24:02.817Z,2.20
2022-08-12T04:26:06.715Z,1.92
2022-08-12T04:28:14.097Z,2.05
2022-08-12T04:30:32.063Z,1.92
2022-08-12T04:32:39.610Z,1.80
2022-08-12T04:34:47.014Z,2.00
2022-08-12T04:36:49.582Z,1.83
2022-08-12T04:38:56.489Z,1.85
2022-08-12T04:41:03.527Z,1.73
2022-08-12T04:43:06.316Z,1.70
2022-08-12T04:45:30.410Z,2.10
2022-08-12T04:47:33.556Z,1.75
2022-08-12T04:49:36.464Z,1.98
2022-08-12T04:51:40.015Z,1.92
2022-08-12T04:53:43.574Z,1.83
2022-08-12T04:55:46.076Z,1.90
2022-08-12T04:57:48.340Z,1.98
2022-08-12T04:59:50.806Z,1.80
2022-08-12T05:01:54.038Z,1.88
2022-08-12T05:03:58.615Z,1.75
2022-08-12T05:06:02.757Z,1.60
2022-08-12T05:08:10.175Z,1.70
2022-08-12T05:10:12.954Z,1.90
2022-08-12T05:12:18.835Z,2.10
2022-08-12T05:14:21.395Z,1.70
2022-08-12T05:16:30.791Z,1.55
2022-08-12T05:18:39.736Z,1.60
2022-08-12T05:20:42.696Z,1.45
2022-08-12T05:22:46.179Z,1.70
2022-08-12T05:24:49.816Z,1.60
2022-08-12T05:26:52.215Z,1.55
2022-08-12T05:28:54.557Z,1.67
2022-08-12T05:30:59.143Z,1.67
2022-08-12T05:33:04.078Z,2.00
2022-08-12T05:35:08.996Z,1.80
2022-08-12T05:37:11.875Z,1.67
2022-08-12T05:39:14.551Z,1.50
2022-08-12T05:41:16.916Z,1.70
2022-08-12T05:43:21.255Z,1.50
2022-08-12T05:45:23.655Z,1.40
2022-08-12T05:47:38.485Z,1.50
2022-08-12T05:49:48.556Z,1.60
2022-08-12T05:51:51.175Z,1.58
2022-08-12T05:53:56.476Z,1.60
2022-08-12T05:56:00.715Z,1.60
2022-08-12T05:58:05.105Z,1.35
2022-08-12T06:00:08.244Z,1.50
2022-08-12T06:02:14.121Z,1.38
2022-08-12T06:04:16.455Z,1.60
2022-08-12T06:06:22.337Z,1.60
2022-08-12T06:08:25.657Z,1.60
2022-08-12T06:10:32.180Z,1.70
2022-08-12T06:12:35.056Z,1.50
2022-08-12T06:14:39.050Z,1.80
2022-08-12T06:16:42.017Z,1.70
2022-08-12T06:18:45.298Z,1.80
2022-08-12T06:20:48.355Z,1.90
2022-08-12T06:22:51.159Z,1.80
2022-08-12T06:24:57.057Z,2.15
2022-08-12T06:26:59.595Z,2.03
2022-08-12T06:29:02.043Z,2.63
2022-08-12T06:33:57.632Z,1.90
2022-08-12T06:35:50.423Z,1.80
2022-08-12T06:37:56.490Z,2.10
2022-08-12T06:40:03.581Z,1.90
2022-08-12T06:42:33.180Z,2.20
2022-08-12T06:44:29.325Z,1.73
2022-08-12T06:46:31.867Z,1.90
2022-08-12T06:48:34.120Z,1.70
2022-08-12T06:50:39.951Z,1.90
2022-08-12T06:52:44.395Z,1.80
2022-08-12T06:54:46.646Z,1.40
2022-08-12T06:58:06.986Z,1.63
2022-08-12T06:59:11.464Z,1.70
2022-08-12T07:01:16.084Z,1.60
2022-08-12T07:03:23.046Z,1.60
2022-08-12T07:05:27.433Z,1.52
2022-08-12T07:07:29.874Z,1.55
2022-08-12T07:10:07.088Z,1.42
2022-08-12T07:11:59.583Z,1.67
2022-08-12T07:14:13.044Z,1.40
2022-08-12T07:16:18.273Z,1.60
2022-08-12T07:18:21.793Z,1.60
2022-08-12T07:20:50.801Z,1.50
2022-08-12T07:22:48.453Z,1.60
2022-08-12T07:24:54.483Z,1.70
2022-08-12T07:26:57.045Z,1.60
2022-08-12T07:29:01.103Z,1.80
2022-08-12T07:31:19.144Z,1.70
2022-08-12T07:33:30.003Z,1.40
2022-08-12T07:35:40.562Z,1.60
2022-08-12T07:37:44.524Z,1.60
2022-08-12T07:39:50.592Z,1.73
2022-08-12T07:42:23.023Z,1.65
2022-08-12T07:46:55.694Z,1.73
2022-08-12T07:49:08.417Z,1.55
2022-08-12T07:51:12.463Z,1.40
2022-08-12T07:53:27.893Z,1.42
2022-08-12T07:55:30.135Z,1.52
2022-08-12T07:57:33.124Z,1.80
2022-08-12T07:59:35.273Z,1.48
2022-08-12T08:01:38.818Z,1.95
2022-08-12T08:03:51.564Z,1.42
2022-08-12T08:05:58.884Z,1.50
2022-08-12T08:08:18.206Z,1.60
2022-08-12T08:10:21.110Z,1.65
2022-08-12T08:12:54.102Z,1.52
2022-08-12T08:14:56.628Z,1.70
2022-08-12T08:17:02.024Z,1.80
2022-08-12T08:19:14.334Z,1.50
2022-08-12T08:21:16.964Z,1.70
2022-08-12T08:23:19.443Z,1.60
2022-08-12T08:25:36.221Z,1.70
2022-08-12T08:27:44.603Z,1.60
2022-08-12T08:29:49.542Z,1.42
2022-08-12T08:31:53.234Z,1.50
2022-08-12T08:34:09.533Z,1.52
2022-08-12T08:36:23.974Z,1.67
2022-08-12T08:38:32.640Z,1.50
2022-08-12T08:40:40.413Z,1.52
2022-08-12T08:42:51.483Z,1.52
2022-08-12T08:44:57.936Z,1.70
2022-08-12T08:47:07.051Z,1.67
2022-08-12T08:49:17.969Z,1.65
2022-08-12T08:51:36.299Z,1.55
2022-08-12T08:53:52.754Z,1.80
2022-08-12T08:56:20.828Z,1.50
2022-08-12T08:58:32.864Z,1.70
2022-08-12T09:00:39.133Z,1.40
2022-08-12T09:04:21.345Z,1.92
2022-08-12T09:06:02.907Z,1.60
2022-08-12T09:08:22.422Z,1.90
2022-08-12T09:11:01.733Z,1.80
2022-08-12T09:14:10.707Z,1.70
2022-08-12T09:20:50.685Z,1.70
2022-08-12T09:26:22.557Z,2.15
2022-08-12T09:28:53.035Z,1.98
2022-08-12T09:30:59.053Z,1.83
2022-08-12T09:33:14.304Z,1.60
2022-08-12T09:35:28.264Z,1.83
2022-08-12T09:37:55.172Z,1.92
2022-08-12T09:40:05.845Z,1.60
2022-08-12T09:42:42.984Z,1.70
2022-08-12T09:45:18.277Z,2.03
2022-08-12T09:47:14.877Z,1.70
2022-08-12T09:49:18.317Z,1.90
2022-08-12T09:51:38.385Z,1.63
2022-08-12T09:53:46.498Z,1.80
2022-08-12T09:56:58.902Z,1.83
2022-08-12T09:58:57.280Z,1.70
2022-08-12T10:00:54.243Z,1.92
2022-08-12T10:03:08.887Z,1.75
2022-08-12T10:08:30.825Z,1.88
2022-08-12T10:10:42.836Z,2.03
2022-08-12T10:15:15.380Z,1.77
2022-08-12T10:17:33.602Z,1.90
2022-08-12T10:19:38.806Z,2.00
2022-08-12T10:21:45.707Z,2.00
2022-08-12T10:23:57.887Z,1.88
2022-08-12T10:26:34.651Z,1.88
2022-08-12T10:28:25.337Z,2.08
2022-08-12T10:30:41.646Z,1.85
2022-08-12T10:32:56.146Z,2.10
2022-08-12T10:34:59.647Z,1.80
2022-08-12T10:38:36.043Z,2.00
2022-08-12T10:40:06.192Z,1.80
2022-08-12T10:42:18.382Z,1.60
2022-08-12T10:44:32.265Z,2.10
2022-08-12T10:46:39.494Z,1.80
2022-08-12T10:48:58.082Z,2.20
2022-08-12T10:52:04.525Z,1.90
2022-08-12T10:53:43.954Z,1.80
2022-08-12T10:55:56.050Z,1.75
2022-08-12T10:58:27.989Z,1.90
2022-08-12T11:00:34.631Z,1.83
2022-08-12T11:04:18.439Z,2.03
2022-08-12T11:07:06.571Z,1.88
2022-08-12T11:08:33.860Z,2.20
2022-08-12T11:10:01.565Z,2.08
2022-08-12T11:12:55.254Z,1.88
2022-08-12T11:14:49.336Z,2.00
2022-08-12T11:17:34.918Z,1.85
2022-08-12T11:19:31.031Z,1.80
2022-08-12T11:21:56.894Z,1.90
2022-08-12T11:23:57.777Z,1.73
2022-08-12T11:26:06.951Z,2.03
2022-08-12T11:28:09.957Z,1.90
2022-08-12T11:30:31.407Z,1.80
2022-08-12T11:32:38.889Z,1.90
2022-08-12T11:34:53.637Z,1.67
2022-08-12T11:37:04.802Z,2.25
2022-08-12T11:39:07.624Z,1.83
2022-08-12T11:41:14.685Z,1.98
2022-08-12T11:43:23.516Z,2.00
2022-08-12T11:45:30.245Z,1.80
2022-08-12T11:47:55.510Z,1.90
2022-08-12T11:49:59.166Z,1.63
2022-08-12T11:55:02.709Z,1.70
2022-08-12T12:14:07.444Z,2.22
2022-08-12T12:16:10.920Z,2.00
2022-08-12T12:25:12.916Z,1.80
2022-08-12T12:28:40.695Z,2.38
2022-08-12T12:32:53.439Z,2.20
2022-08-12T12:36:30.282Z,1.85
2022-08-12T12:43:42.795Z,1.80
2022-08-12T12:46:54.808Z,2.00
2022-08-12T12:49:06.853Z,1.83
2022-08-12T12:52:19.875Z,1.73
2022-08-12T13:09:22.300Z,2.10
2022-08-12T13:12:53.174Z,1.90
2022-08-12T13:19:25.070Z,1.70
2022-08-12T13:38:02.817Z,2.05
2022-08-12T13:40:07.188Z,2.10
2022-08-12T13:45:11.670Z,2.10
2022-08-12T13:47:19.687Z,2.20
2022-08-12T13:49:54.893Z,2.58
2022-08-12T13:53:16.669Z,2.15
2022-08-12T13:56:39.147Z,2.00
2022-08-12T13:59:11.805Z,1.90
2022-08-12T14:01:14.563Z,2.10
2022-08-12T14:08:21.304Z,2.25
2022-08-12T14:33:51.291Z,2.25
2022-08-12T14:36:37.041Z,2.10
2022-08-12T14:52:16.161Z,2.70
2022-08-12T14:56:59.369Z,2.33
2022-08-12T15:10:02.272Z,2.45
2022-08-12T15:18:55.183Z,2.35
2022-08-12T15:22:15.155Z,2.50
2022-08-12T15:31:21.178Z,2.67
2022-08-12T15:34:30.821Z,2.40
2022-08-12T15:36:53.859Z,2.30
2022-08-12T15:38:58.519Z,2.33
2022-08-12T15:41:01.723Z,2.67
2022-08-12T15:43:09.815Z,2.60
2022-08-12T15:45:23.530Z,2.63
2022-08-12T15:48:16.987Z,2.50
2022-08-12T15:50:29.032Z,2.80
2022-08-12T15:52:31.679Z,2.40
2022-08-12T15:54:50.658Z,2.58
2022-08-12T15:57:33.458Z,3.08
2022-08-12T16:02:50.596Z,4.50
2022-08-12T16:04:55.112Z,3.90
2022-08-12T16:07:30.935Z,2.67
2022-08-12T16:09:56.758Z,2.80
2022-08-12T16:12:06.053Z,3.00
2022-08-12T16:23:55.190Z,2.70
2022-08-12T16:26:14.747Z,2.50
2022-08-12T16:28:18.369Z,4.22
2022-08-12T16:30:31.456Z,2.83
2022-08-12T16:32:35.572Z,2.55
2022-08-12T16:36:58.805Z,2.75
2022-08-12T16:39:18.418Z,2.95
2022-08-12T16:42:18.308Z,2.63
2022-08-12T16:45:22.988Z,2.50
2022-08-12T16:53:59.313Z,2.80
2022-08-12T17:08:29.056Z,2.55
2022-08-12T17:09:34.358Z,2.70
2022-08-12T17:13:10.017Z,2.70
2022-08-12T17:15:50.296Z,2.50
2022-08-12T17:18:42.859Z,2.80
2022-08-12T17:20:51.438Z,2.70
2022-08-12T17:22:54.397Z,2.70
2022-08-12T17:25:29.935Z,2.60
2022-08-12T17:27:34.210Z,2.60
2022-08-12T17:30:02.969Z,3.03
2022-08-12T17:32:07.727Z,2.97
2022-08-12T17:34:17.484Z,2.40
2022-08-12T17:36:22.427Z,3.00
2022-08-12T17:38:28.251Z,2.70
2022-08-12T17:40:42.329Z,2.70
2022-08-12T17:42:47.634Z,3.20
2022-08-12T17:44:50.271Z,3.20
2022-08-12T17:46:55.469Z,3.03
2022-08-12T17:48:59.731Z,3.10
2022-08-12T17:51:04.448Z,2.95
2022-08-12T17:53:20.940Z,2.78
2022-08-12T17:55:40.910Z,2.50
2022-08-12T17:57:46.767Z,2.85
2022-08-12T17:59:55.057Z,2.70
2022-08-12T18:01:58.128Z,3.05
2022-08-12T18:04:21.249Z,3.00
2022-08-12T18:06:27.742Z,2.97
2022-08-12T18:08:30.487Z,3.20
2022-08-12T18:10:36.557Z,3.00
2022-08-12T18:12:50.993Z,3.08
2022-08-12T18:15:26.866Z,3.55
2022-08-12T18:17:41.081Z,3.17
2022-08-12T18:20:08.331Z,3.40
2022-08-12T18:22:43.264Z,3.40
2022-08-12T18:25:00.820Z,3.72
2022-08-12T18:27:30.353Z,3.63
2022-08-12T18:29:44.346Z,3.53
2022-08-12T18:31:59.827Z,3.80
2022-08-12T18:34:09.458Z,3.60
2022-08-12T18:36:22.743Z,3.40
2022-08-12T18:38:27.302Z,3.78
2022-08-12T18:40:31.490Z,3.40
2022-08-12T18:42:35.446Z,3.55
2022-08-12T18:44:38.160Z,3.20
2022-08-12T18:46:48.862Z,3.63
2022-08-12T18:49:18.300Z,3.60
2022-08-12T18:51:45.683Z,3.60
2022-08-12T18:54:06.261Z,3.60
2022-08-12T18:56:33.805Z,3.70
2022-08-12T18:58:53.181Z,3.67
2022-08-12T19:01:05.299Z,4.00
2022-08-12T19:03:23.640Z,3.75
2022-08-12T19:05:53.070Z,3.50
2022-08-12T19:08:02.192Z,4.32
2022-08-12T19:10:08.746Z,4.03
2022-08-12T19:12:20.245Z,3.92
2022-08-12T19:14:33.847Z,4.10
2022-08-12T19:24:02.486Z,4.10
2022-08-12T19:26:44.865Z,4.82
2022-08-12T19:30:07.218Z,4.30
2022-08-12T19:32:39.419Z,4.38
2022-08-12T19:36:06.884Z,4.13
2022-08-12T19:38:27.159Z,4.03
2022-08-12T19:40:59.262Z,4.30
2022-08-12T19:43:20.159Z,4.25
2022-08-12T19:45:43.720Z,4.35
2022-08-12T19:51:09.205Z,4.60
2022-08-12T19:53:30.108Z,4.28
2022-08-12T19:55:57.728Z,4.70
2022-08-12T19:58:04.828Z,4.50
2022-08-12T20:00:10.246Z,4.68
2022-08-12T20:02:17.626Z,4.53
2022-08-12T20:04:19.931Z,4.60
2022-08-12T20:06:24.447Z,4.20
2022-08-12T20:08:36.366Z,4.22
2022-08-12T20:10:45.696Z,4.47
2022-08-12T20:13:17.399Z,4.70
2022-08-12T20:15:26.574Z,4.57
2022-08-12T20:20:19.410Z,4.55
2022-08-12T20:22:36.298Z,4.25
2022-08-12T20:24:50.927Z,4.63
2022-08-12T20:27:02.028Z,4.95
2022-08-12T20:34:25.955Z,5.07
2022-08-12T20:36:41.207Z,4.90
2022-08-12T20:39:02.454Z,4.78
2022-08-12T20:41:05.286Z,5.05
2022-08-12T20:43:38.052Z,4.63
2022-08-12T20:46:02.829Z,4.50
2022-08-12T20:48:11.694Z,4.97
2022-08-12T20:50:38.496Z,4.93
2022-08-12T20:52:55.576Z,4.60
2022-08-12T20:55:15.325Z,4.60
2022-08-12T20:57:38.280Z,4.72
2022-08-12T21:02:30.324Z,4.65
2022-08-12T21:07:13.467Z,4.60
2022-08-12T21:09:22.127Z,4.57
2022-08-12T21:11:28.066Z,4.20
2022-08-12T21:13:38.787Z,4.60
2022-08-12T21:18:50.471Z,4.57
2022-08-12T21:21:03.753Z,4.95
2022-08-12T21:23:07.446Z,4.70
2022-08-12T21:25:14.639Z,4.72
2022-08-12T21:27:19.386Z,4.95
2022-08-12T21:29:23.634Z,4.60
2022-08-12T21:32:36.574Z,4.60
2022-08-12T21:34:41.015Z,4.95
2022-08-12T21:37:13.234Z,5.00
2022-08-12T21:39:37.117Z,4.75
2022-08-12T21:47:37.767Z,4.68
2022-08-12T21:49:55.040Z,4.97
2022-08-12T21:51:58.435Z,4.80
2022-08-12T21:54:07.847Z,5.20
2022-08-12T21:56:12.114Z,5.15
2022-08-12T22:00:47.045Z,5.43
2022-08-12T22:02:49.224Z,5.18
2022-08-12T22:04:52.925Z,4.88
2022-08-12T22:06:59.149Z,5.35
2022-08-12T22:09:02.774Z,5.35
2022-08-12T22:11:06.738Z,5.43
2022-08-12T22:14:06.925Z,5.32
2022-08-12T22:15:33.049Z,5.22
2022-08-12T22:17:50.334Z,5.88
2022-08-12T22:20:01.935Z,5.72
2022-08-12T22:22:06.433Z,5.15
2022-08-12T22:26:29.266Z,5.55
2022-08-12T22:28:45.638Z,5.30
2022-08-12T22:37:44.962Z,6.05
2022-08-12T22:39:49.758Z,6.35
2022-08-12T22:41:58.631Z,6.32
2022-08-12T22:44:04.337Z,5.78
2022-08-12T22:46:09.036Z,6.70
2022-08-12T22:48:17.659Z,6.63
2022-08-12T22:50:32.633Z,6.95
2022-08-12T22:52:37.178Z,6.35
2022-08-12T22:57:49.816Z,7.10
2022-08-12T22:59:59.028Z,7.00
2022-08-12T23:02:02.518Z,7.47
2022-08-12T23:04:11.294Z,7.68
2022-08-12T23:06:21.982Z,7.03
2022-08-12T23:08:30.087Z,6.75
2022-08-12T23:10:42.820Z,7.50
2022-08-12T23:12:47.454Z,7.03
2022-08-12T23:14:51.626Z,6.40
2022-08-12T23:16:55.026Z,6.72
2022-08-12T23:19:09.527Z,7.47
2022-08-12T23:21:19.284Z,6.97
2022-08-12T23:23:25.738Z,7.10
2022-08-12T23:25:32.571Z,7.15
2022-08-12T23:27:55.876Z,7.75
2022-08-12T23:30:18.021Z,7.22
2022-08-12T23:34:39.307Z,7.22
2022-08-12T23:36:50.128Z,7.15
2022-08-12T23:38:58.665Z,7.05
2022-08-12T23:41:04.446Z,7.05
2022-08-12T23:43:06.587Z,7.60
2022-08-12T23:45:20.492Z,7.03
2022-08-12T23:47:33.918Z,7.57
2022-08-12T23:49:56.998Z,6.88
2022-08-12T23:52:04.812Z,6.80
2022-08-12T23:54:08.977Z,6.82
2022-08-12T23:56:12.704Z,7.15
2022-08-12T23:58:21.824Z,7.32
